Flight Track Log - Related Links

Times and Time Zones

All times are in EDT time to prevent confusion due to time zone crossing. See the JIA2335 flight status page for this flight to view local times or setup timezone preferences in your user account.

Time Position Orientation Groundspeed Altitude Reporting Facility
EDT Latitude Longitude Course Direction KTS MPH feet Rate Location/Type
Mon 09:30:02 AM 39.8667 -75.2833 270° West 160 184 800  Level Philadelphia TRACON
Mon 09:32:00 AM 39.9037 -75.6017 285° West  Level FlightAware Approximate
Mon 09:32:15 AM 39.8583 -75.4411 266° West 218 251 4,500  Level New York Center
Mon 09:33:00 AM 39.9067 -75.7269 258° West  Level FlightAware Approximate
Mon 09:33:16 AM 39.8819 -75.5319 289° West 246 283 7,000  Level New York Center
Mon 09:34:00 AM 39.9001 -75.8547 270° West  Level FlightAware Approximate
Mon 09:34:17 AM 39.9014 -75.6144 287° West 264 304 9,000  Level New York Center
Mon 09:35:00 AM 39.9000 -75.9834 270° West  Level FlightAware Approximate
Mon 09:35:17 AM 39.9158 -75.7239 280° West 271 312 11,300  Level New York Center
Mon 09:36:18 AM 39.9139 -75.8183 268° West 289 333 12,900 1,576 Climbing New York Center
Mon 09:37:15 AM 39.9128 -75.9375 269° West 300 345 14,400 1,525 Climbing New York Center
Mon 09:38:16 AM 39.9122 -76.0456 270° West 319 367 15,900 1,686 Climbing New York Center
Mon 09:39:16 AM 39.9083 -76.1781 268° West 329 379 17,800 1,587 Climbing New York Center
Mon 09:40:17 AM 39.9111 -76.2947 272° West 329 379 19,100 1,230 Climbing New York Center
Mon 09:41:18 AM 39.9158 -76.4142 273° West 329 379 20,300 1,220 Climbing New York Center
Mon 09:42:15 AM 39.9206 -76.5364 273° West 329 379 21,500 1,128 Climbing New York Center
Mon 09:43:15 AM 39.9247 -76.6586 273° West 334 384 22,500 992 Climbing New York Center
Mon 09:44:16 AM 39.9311 -76.7836 274° West 339 390 23,500 893 Climbing New York Center
Mon 09:45:16 AM 39.9369 -76.9114 273° West 350 403 24,300 793 Climbing New York Center
Mon 09:46:17 AM 39.9406 -77.0389 272° West 355 409 25,100 787 Climbing New York Center
Mon 09:47:18 AM 39.9461 -77.1694 273° West 355 409 25,900 756 Climbing New York Center
Mon 09:48:16 AM 39.9517 -77.3000 273° West 361 415 26,600 700 Climbing New York Center
Mon 09:49:18 AM 39.9544 -77.4358 272° West 372 428 27,300 663 Climbing New York Center
Mon 09:51:35 AM 39.9672 -77.7442 273° West 366 421 28,800 640 Climbing Cleveland Center
Mon 09:52:35 AM 39.9725 -77.8739 273° West 366 421 29,400 550 Climbing Cleveland Center
Mon 09:53:35 AM 39.9756 -78.0067 272° West 366 421 29,900 500 Climbing Cleveland Center
Mon 09:54:35 AM 39.9783 -78.1419 272° West 366 421 30,400 450 Climbing Cleveland Center
Mon 09:55:35 AM 39.9828 -78.2531 273° West 366 421 30,800 467 Climbing Cleveland Center
Mon 09:57:35 AM 39.9842 -78.5347 270° West 371 427 31,800 400 Climbing Cleveland Center
Mon 09:58:35 AM 39.9864 -78.6700 271° West 371 427 32,000 100 Climbing Cleveland Center
Mon 09:59:35 AM 39.9908 -78.8028 273° West 371 427 32,000  Level Cleveland Center
Mon 10:00:35 AM 39.9928 -78.9408 271° West 377 434 32,000  Level Cleveland Center
Mon 10:01:35 AM 39.9989 -79.0764 273° West 377 434 32,000  Level Cleveland Center
Mon 10:02:35 AM 40.0006 -79.2092 271° West 377 434 32,000  Level Cleveland Center
Mon 10:03:35 AM 40.0042 -79.3472 272° West 377 434 32,000  Level Cleveland Center
Mon 10:04:35 AM 40.0056 -79.4828 271° West 382 440 32,000  Level Cleveland Center
Mon 10:05:35 AM 40.0089 -79.6156 272° West 382 440 32,000  Level Cleveland Center
Mon 10:07:00 AM 40.0011 -79.7919 267° West  Level FlightAware Approximate
Mon 10:07:35 AM 40.0108 -79.8892 267° West 382 440 32,000  Level Cleveland Center
Mon 10:08:35 AM 40.0136 -80.0247 272° West 382 440 32,000  Level Cleveland Center
Mon 10:09:35 AM 40.0164 -80.1603 272° West 382 440 32,000  Level Cleveland Center
Mon 10:10:35 AM 40.0167 -80.2958 270° West 382 440 32,000  Level Cleveland Center
Mon 10:11:35 AM 40.0169 -80.4339 270° West 382 440 32,000  Level Cleveland Center
Mon 10:12:35 AM 40.0172 -80.5831 270° West 382 440 32,000  Level Cleveland Center
Mon 10:13:35 AM 40.0192 -80.7186 271° West 382 440 32,000  Level Cleveland Center
Mon 10:14:35 AM 40.0231 -80.8569 272° West 382 440 32,000 -350 Level Cleveland Center
Mon 10:15:35 AM 40.0292 -80.9719 274° West 376 433 31,300 -934 Descending Indianapolis Center
Mon 10:16:37 AM 40.0425 -81.1297 276° West 370 426 30,100 -1,065 Descending Indianapolis Center
Mon 10:17:39 AM 40.0517 -81.2639 275° West 367 422 29,100 -968 Descending Indianapolis Center
Mon 10:18:41 AM 40.0636 -81.3967 277° West 365 420 28,100 -532 Descending Indianapolis Center
Mon 10:19:43 AM 40.0742 -81.5306 276° West 367 422 28,000 -48 Descending Indianapolis Center
Mon 10:20:45 AM 40.0850 -81.6678 276° West 373 429 28,000 -48 Level Indianapolis Center
Mon 10:21:47 AM 40.1078 -81.8072 282° West 378 435 27,900 -532 Descending Indianapolis Center
Mon 10:22:49 AM 40.1386 -81.9403 287° West 379 436 26,900 -968 Descending Indianapolis Center
Mon 10:23:51 AM 40.1706 -82.0703 288° West 375 432 25,900 -968 Descending Indianapolis Center
Mon 10:24:53 AM 40.2047 -82.1992 289° West 373 429 24,900 -1,016 Descending Indianapolis Center
Mon 10:25:55 AM 40.2436 -82.3456 289° West 368 423 23,800 -1,016 Descending Indianapolis Center
Mon 10:26:57 AM 40.2772 -82.4689 290° West 358 412 22,800 -1,016 Descending Indianapolis Center
Mon 10:27:59 AM 40.3061 -82.5900 287° West 352 405 21,700 -1,016 Descending Indianapolis Center
Mon 10:29:01 AM 40.2919 -82.7153 262° West 347 399 20,700 -968 Descending Indianapolis Center
Mon 10:30:03 AM 40.2803 -82.8447 263° West 351 404 19,700 -960 Descending Indianapolis Center
Mon 10:31:06 AM 40.2683 -82.9744 263° West 355 409 18,700 -960 Descending Indianapolis Center
Mon 10:32:08 AM 40.2550 -83.1192 263° West 346 398 17,700 -1,258 Descending Indianapolis Center
Mon 10:33:10 AM 40.2439 -83.2394 263° West 334 384 16,100 -1,544 Descending Indianapolis Center
Mon 10:34:24 AM 40.2267 -83.3892 261° West 326 375 14,200 -1,500 Descending Indianapolis Center
Mon 10:35:14 AM 40.2194 -83.4725 264° West 318 366 13,000 -1,339 Descending Indianapolis Center
Mon 10:36:16 AM 40.2089 -83.5808 263° West 304 350 11,700 -1,258 Descending Indianapolis Center
Mon 10:37:18 AM 40.1878 -83.6814 255° West 292 336 10,400 -1,403 Descending Indianapolis Center
Mon 10:38:20 AM 40.1419 -83.7811 239° Southwest 275 316 8,800 -1,548 Descending Indianapolis Center
Mon 10:39:22 AM 40.0992 -83.8608 235° Southwest 268 308 7,200 -1,556 Descending Indianapolis Center
Mon 10:40:35 AM 40.0511 -83.9539 236° Southwest 255 293 5,300 -1,597 Descending Indianapolis Center
Mon 10:41:26 AM 40.0175 -84.0131 233° Southwest 258 297 3,900 -1,381 Descending Indianapolis Center
Mon 10:42:28 AM 39.9806 -84.0847 236° Southwest 248 285 2,700 -1,161 Descending Indianapolis Center

Login

Don't have an account? Register now (free) for customized features, flight alerts, and more!